createdAt,value
2018-10-17T00:00:26.122Z,50.7
2018-10-17T00:10:25.346Z,50.6
2018-10-17T00:20:24.563Z,50.6
2018-10-17T00:30:23.772Z,50.5
2018-10-17T00:40:23.029Z,50.4
2018-10-17T00:50:22.218Z,50.3
2018-10-17T01:00:21.437Z,50.3
2018-10-17T01:10:20.654Z,50.2
2018-10-17T01:20:19.877Z,50.2
2018-10-17T01:30:19.086Z,50.1
2018-10-17T01:40:18.321Z,50.1
2018-10-17T01:50:17.526Z,50
2018-10-17T02:00:16.739Z,49.9
2018-10-17T02:10:15.957Z,49.9
2018-10-17T02:20:15.175Z,49.8
2018-10-17T02:30:14.393Z,49.7
2018-10-17T02:40:13.610Z,49.6
2018-10-17T02:50:12.828Z,45.3
2018-10-17T03:00:12.052Z,43.4
2018-10-17T03:10:11.265Z,42.8
2018-10-17T03:20:10.507Z,39.6
2018-10-17T03:30:09.706Z,39.6
2018-10-17T03:40:08.922Z,38.8
2018-10-17T03:50:08.142Z,38.6
2018-10-17T04:00:07.376Z,37.5
2018-10-17T04:10:06.587Z,35.9
2018-10-17T04:20:05.811Z,36
2018-10-17T04:30:05.023Z,36.1
2018-10-17T04:40:04.242Z,36.2
2018-10-17T04:50:03.465Z,36.4
2018-10-17T05:00:02.682Z,36.6
2018-10-17T05:10:01.898Z,36.6
2018-10-17T05:20:01.124Z,36.7
2018-10-17T05:30:00.339Z,36.8
2018-10-17T05:39:59.557Z,36.9
2018-10-17T05:49:58.769Z,36.9
2018-10-17T05:59:58.189Z,37
2018-10-17T06:09:57.209Z,37.2
2018-10-17T06:19:56.433Z,37.5
2018-10-17T06:29:55.647Z,38
2018-10-17T06:39:54.870Z,38.7
2018-10-17T06:49:54.104Z,39.6
2018-10-17T06:59:53.309Z,40.5
2018-10-17T07:09:52.525Z,41.5
2018-10-17T07:19:51.745Z,42.5
2018-10-17T07:29:51.242Z,43.6
2018-10-17T07:39:50.195Z,44.6
2018-10-17T07:49:49.409Z,45.6
2018-10-17T07:59:48.886Z,46.5
2018-10-17T08:09:47.856Z,47.4
2018-10-17T08:19:47.077Z,48.3
2018-10-17T08:29:46.303Z,49.1
2018-10-17T08:39:45.522Z,49.8
2018-10-17T08:49:44.736Z,50.4
2018-10-17T08:59:43.966Z,51
2018-10-17T09:09:43.176Z,51.6
2018-10-17T09:19:42.654Z,52.3
2018-10-17T09:29:41.618Z,52.9
2018-10-17T09:39:40.840Z,53.6
2018-10-17T09:49:40.059Z,54.2
2018-10-17T09:59:39.286Z,54.9
2018-10-17T10:09:38.500Z,55.4
2018-10-17T10:19:37.728Z,55.9
2018-10-17T10:29:36.975Z,56.4
2018-10-17T10:39:36.167Z,56.9
2018-10-17T10:49:35.390Z,57.3
2018-10-17T10:59:34.869Z,57.9
2018-10-17T11:09:33.832Z,58.4
2018-10-17T11:19:33.051Z,58.9
2018-10-17T11:29:32.275Z,59.6
2018-10-17T11:39:31.488Z,60.1
2018-10-17T11:49:30.711Z,60.7
2018-10-17T11:59:29.992Z,61.3
2018-10-17T12:09:29.151Z,61.9
2018-10-17T12:19:28.367Z,62.4
2018-10-17T12:29:27.586Z,63.1
2018-10-17T12:39:26.960Z,63.7
2018-10-17T12:49:26.026Z,64.2
2018-10-17T12:59:25.244Z,64.6
2018-10-17T13:09:24.494Z,65.1
2018-10-17T13:19:23.685Z,65.4
2018-10-17T13:29:22.902Z,65.9
2018-10-17T13:39:22.123Z,66.3
2018-10-17T13:49:21.712Z,66.8
2018-10-17T13:59:20.699Z,67.1
2018-10-17T14:09:19.785Z,67.4
2018-10-17T14:19:19.005Z,67.8
2018-10-17T14:29:18.226Z,68
2018-10-17T14:39:17.532Z,68.2
2018-10-17T14:49:16.664Z,68.4
2018-10-17T14:59:16.033Z,68.5
2018-10-17T15:09:15.185Z,68.6
2018-10-17T15:19:14.317Z,68.7
2018-10-17T15:29:13.547Z,68.5
2018-10-17T15:39:12.851Z,68.4
2018-10-17T15:49:11.981Z,68.3
2018-10-17T15:59:11.200Z,68.2
2018-10-17T16:09:10.424Z,67.3
2018-10-17T16:19:09.642Z,59.1
2018-10-17T16:29:08.865Z,53.5
2018-10-17T16:39:08.090Z,52.9
2018-10-17T16:49:07.309Z,50.9
2018-10-17T16:59:06.527Z,50.9
2018-10-17T17:09:05.789Z,49.3
2018-10-17T17:19:04.965Z,47.6
2018-10-17T17:29:04.191Z,46.1
2018-10-17T17:39:03.414Z,46.3
2018-10-17T17:49:02.640Z,46.4
2018-10-17T17:59:01.862Z,45.4
2018-10-17T18:09:01.087Z,41.8
2018-10-17T18:19:00.358Z,36.6
2018-10-17T18:28:59.537Z,37.5
2018-10-17T18:38:58.750Z,37.9
2018-10-17T18:48:58.028Z,38.2
2018-10-17T18:58:57.197Z,38.4
2018-10-17T19:08:56.448Z,38.6
2018-10-17T19:18:55.644Z,31.1
2018-10-17T19:28:54.920Z,31.3
2018-10-17T19:38:54.123Z,31.8
2018-10-17T19:48:53.363Z,32
2018-10-17T19:58:52.538Z,32.4
2018-10-17T20:08:51.794Z,32.8
2018-10-17T20:18:50.986Z,33.1
2018-10-17T20:28:50.202Z,33.3
2018-10-17T20:38:49.422Z,33.5
2018-10-17T20:48:48.648Z,33.7
2018-10-17T20:58:47.868Z,33.9
2018-10-17T21:08:47.093Z,34.1
2018-10-17T21:18:46.361Z,34.3
2018-10-17T21:28:45.529Z,34.4
2018-10-17T21:38:44.752Z,34.5
2018-10-17T21:48:43.973Z,34.7
2018-10-17T21:58:43.193Z,34.8
2018-10-17T22:08:42.416Z,34.9
2018-10-17T22:18:41.644Z,35.1
2018-10-17T22:28:40.856Z,35.1
2018-10-17T22:38:40.080Z,35.3
2018-10-17T22:48:39.301Z,35.3
2018-10-17T22:58:38.522Z,35.4
2018-10-17T23:08:37.739Z,35.6
2018-10-17T23:18:37.013Z,35.6
2018-10-17T23:28:36.180Z,35.8
2018-10-17T23:38:35.416Z,35.8
2018-10-17T23:48:34.625Z,35.9
2018-10-17T23:58:33.851Z,36
